Time;durP1;ratioP1;P1;durP2;ratioP2;P2;SDS_P1;SDS_P2;PMS_P1;PMS_P2;Temp;Humidity;BMP_temperature;BMP_pressure;BME280_temperature;BME280_humidity;BME280_pressure;Samples;Min_cycle;Max_cycle;Signal;HPM_P1;HPM_P2
2023/05/26 00:00:06;;;;;;;20.00;10.50;;;538.20;2406.40;;;;;;5096515;28;20020;-79
2023/05/26 00:02:36;;;;;;;13.95;10.15;;;538.30;2406.40;;;;;;5096021;28;20481;-72
2023/05/26 00:05:03;;;;;;;16.30;10.43;;;538.20;2406.40;;;;;;5096207;28;20020;-72
2023/05/26 00:07:29;;;;;;;16.40;11.30;;;538.20;2406.40;;;;;;5096317;28;20065;-73
2023/05/26 00:09:55;;;;;;;16.40;10.40;;;538.30;2406.40;;;;;;5095877;28;20032;-72
2023/05/26 00:12:20;;;;;;;16.45;10.40;;;538.20;2406.40;;;;;;5095937;28;20043;-71
2023/05/26 00:14:46;;;;;;;12.57;9.60;;;538.10;2406.40;;;;;;5096023;28;20020;-76
2023/05/26 00:17:12;;;;;;;11.48;8.48;;;538.20;2406.40;;;;;;5096078;28;20028;-73
2023/05/26 00:19:39;;;;;;;13.48;9.20;;;538.10;2406.40;;;;;;5095807;28;20042;-71
2023/05/26 00:22:05;;;;;;;14.95;10.80;;;538.10;2406.40;;;;;;5095874;28;20462;-72
2023/05/26 00:24:30;;;;;;;19.85;9.65;;;538.00;2406.40;;;;;;5095713;28;20103;-79
2023/05/26 00:26:56;;;;;;;11.05;8.75;;;538.00;2406.40;;;;;;5095734;28;20085;-72
2023/05/26 00:29:22;;;;;;;14.68;9.48;;;538.00;2406.40;;;;;;5095598;28;20046;-72
2023/05/26 00:31:47;;;;;;;15.63;10.73;;;537.90;2406.40;;;;;;5095472;28;20031;-76
2023/05/26 00:34:13;;;;;;;13.40;9.68;;;537.80;2406.40;;;;;;5095277;28;20055;-71
2023/05/26 00:36:39;;;;;;;13.00;9.45;;;537.80;2406.40;;;;;;5095636;28;20107;-72
2023/05/26 00:39:04;;;;;;;13.80;9.68;;;537.70;2406.40;;;;;;5095401;28;20100;-72
2023/05/26 00:41:30;;;;;;;15.30;10.02;;;537.70;2406.40;;;;;;5095535;28;20424;-71
2023/05/26 00:43:56;;;;;;;13.98;9.73;;;537.70;2406.40;;;;;;5095230;28;20035;-72
2023/05/26 00:46:22;;;;;;;11.90;9.52;;;537.70;2406.40;;;;;;5095366;28;20024;-72
2023/05/26 00:48:47;;;;;;;18.63;10.55;;;537.80;2406.40;;;;;;5094594;28;20020;-72
2023/05/26 00:51:13;;;;;;;13.93;9.77;;;537.80;2406.40;;;;;;5094539;28;20032;-72
2023/05/26 00:53:43;;;;;;;13.23;9.32;;;537.80;2406.40;;;;;;5094349;28;20038;-72
2023/05/26 00:56:15;;;;;;;15.88;9.43;;;537.80;2406.40;;;;;;5094129;28;20027;-71
2023/05/26 00:58:42;;;;;;;13.88;9.95;;;537.80;2406.40;;;;;;5091701;28;20023;-72
2023/05/26 01:01:08;;;;;;;20.25;11.90;;;537.70;2406.40;;;;;;5094173;28;20020;-72
2023/05/26 01:03:35;;;;;;;16.75;9.80;;;537.70;2406.40;;;;;;5093995;28;20161;-76
2023/05/26 01:06:00;;;;;;;12.82;9.35;;;537.70;2406.40;;;;;;5091442;28;20020;-73
2023/05/26 01:08:26;;;;;;;15.18;10.10;;;537.80;2406.40;;;;;;5093753;28;20024;-78
2023/05/26 01:10:55;;;;;;;16.98;9.88;;;537.80;2406.40;;;;;;5094024;28;20032;-79
2023/05/26 01:13:27;;;;;;;16.83;10.55;;;537.80;2406.40;;;;;;5091106;28;20024;-77
2023/05/26 01:16:01;;;;;;;15.85;10.73;;;537.70;2406.40;;;;;;5093925;28;20496;-72
2023/05/26 01:18:55;;;;;;;12.95;9.80;;;537.80;2406.40;;;;;;5091833;28;20605;-72
2023/05/26 01:21:23;;;;;;;16.50;10.20;;;537.70;2406.40;;;;;;5093544;28;20016;-72
2023/05/26 01:24:13;;;;;;;14.73;11.27;;;537.60;2406.40;;;;;;5093604;28;20031;-73
2023/05/26 01:27:09;;;;;;;20.67;12.20;;;512.90;2380.80;;;;;;5093285;28;20026;-77
2023/05/26 01:29:36;;;;;;;13.93;10.50;;;512.90;2380.80;;;;;;5092722;28;20015;-72
2023/05/26 01:32:14;;;;;;;13.43;9.90;;;512.90;2380.80;;;;;;5090747;28;20035;-72
2023/05/26 01:34:40;;;;;;;17.33;10.73;;;512.90;2380.80;;;;;;5093075;28;20028;-74
2023/05/26 01:37:06;;;;;;;16.40;11.70;;;512.90;2380.80;;;;;;5093506;28;20109;-72
2023/05/26 01:39:34;;;;;;;16.55;11.30;;;512.90;2380.80;;;;;;5093220;28;20012;-72
2023/05/26 01:42:21;;;;;;;18.58;12.18;;;512.90;2380.80;;;;;;5093372;28;20078;-72
2023/05/26 01:45:11;;;;;;;15.38;10.55;;;512.90;2380.80;;;;;;5090511;28;20017;-71
2023/05/26 01:47:39;;;;;;;14.80;10.80;;;512.90;2380.80;;;;;;5078005;28;20040;-73
2023/05/26 01:50:07;;;;;;;17.95;11.52;;;512.90;2380.80;;;;;;5090483;28;20370;-75
2023/05/26 01:52:35;;;;;;;17.48;12.20;;;512.90;2380.80;;;;;;5093131;28;20366;-72
2023/05/26 01:55:07;;;;;;;20.75;11.85;;;512.90;2380.80;;;;;;5093056;28;20019;-71
2023/05/26 01:57:34;;;;;;;20.10;11.43;;;512.80;2380.80;;;;;;5092876;28;20065;-73
2023/05/26 02:00:00;;;;;;;19.48;12.88;;;512.80;2380.80;;;;;;5093037;28;20031;-72
2023/05/26 02:02:26;;;;;;;18.67;12.18;;;512.80;2380.80;;;;;;5093001;28;20023;-73
2023/05/26 02:04:51;;;;;;;17.48;12.85;;;512.70;2380.80;;;;;;5092840;28;20020;-79
2023/05/26 02:07:19;;;;;;;18.48;11.75;;;512.80;2380.80;;;;;;5092975;28;20048;-71
2023/05/26 02:09:44;;;;;;;15.98;11.07;;;512.60;2380.80;;;;;;5092834;28;20069;-71
2023/05/26 02:12:10;;;;;;;18.80;11.68;;;512.60;2380.80;;;;;;5092799;28;20040;-71
2023/05/26 02:14:36;;;;;;;18.77;12.55;;;512.60;2380.80;;;;;;5093142;28;20058;-72
2023/05/26 02:17:02;;;;;;;20.20;11.80;;;512.50;2380.80;;;;;;5093048;28;20046;-72
2023/05/26 02:19:27;;;;;;;20.77;13.15;;;512.60;2380.80;;;;;;5092197;28;20023;-72
2023/05/26 02:21:53;;;;;;;18.50;11.85;;;512.50;2380.80;;;;;;5092450;28;20024;-71
2023/05/26 02:24:19;;;;;;;18.30;12.52;;;512.60;2380.80;;;;;;5092564;28;20024;-72
2023/05/26 02:26:45;;;;;;;17.98;12.85;;;512.60;2380.80;;;;;;5092554;28;20020;-78
2023/05/26 02:29:11;;;;;;;21.10;12.38;;;512.50;2380.80;;;;;;5092253;28;20020;-73
2023/05/26 02:31:37;;;;;;;23.10;12.88;;;512.60;2380.80;;;;;;5092102;28;20032;-72
2023/05/26 02:34:04;;;;;;;17.33;12.15;;;512.70;2380.80;;;;;;5092370;28;20097;-72
2023/05/26 02:36:31;;;;;;;19.10;12.52;;;512.60;2380.80;;;;;;5074038;28;20111;-72
2023/05/26 02:38:58;;;;;;;20.15;13.35;;;512.60;2380.80;;;;;;5092528;28;20101;-72
2023/05/26 02:41:23;;;;;;;22.13;13.15;;;512.70;2380.80;;;;;;5092432;28;20019;-71
2023/05/26 02:43:49;;;;;;;23.25;12.93;;;512.60;2380.80;;;;;;5092150;28;20036;-71
2023/05/26 02:46:15;;;;;;;19.65;12.77;;;512.40;2380.80;;;;;;5071472;28;20051;-72
2023/05/26 02:48:41;;;;;;;15.43;12.52;;;512.60;2380.80;;;;;;5092169;28;20012;-72
2023/05/26 02:51:07;;;;;;;21.55;12.63;;;512.60;2380.80;;;;;;5089234;28;20028;-76
2023/05/26 02:53:33;;;;;;;17.48;13.05;;;512.50;2380.80;;;;;;5092373;28;20031;-72
2023/05/26 02:55:59;;;;;;;16.45;12.38;;;512.50;2380.80;;;;;;5092352;28;20024;-72
2023/05/26 02:58:24;;;;;;;16.90;12.18;;;512.50;2380.80;;;;;;5091967;28;20020;-72
2023/05/26 03:00:50;;;;;;;18.75;13.50;;;512.50;2380.80;;;;;;5092583;28;20503;-72
2023/05/26 03:03:16;;;;;;;19.15;13.57;;;512.30;2380.80;;;;;;5089397;28;20504;-71
2023/05/26 03:05:42;;;;;;;18.27;13.18;;;512.20;2380.80;;;;;;5091455;28;20036;-72
2023/05/26 03:08:08;;;;;;;19.63;12.90;;;512.20;2380.80;;;;;;5091467;28;20019;-71
2023/05/26 03:10:35;;;;;;;19.35;12.90;;;512.20;2380.80;;;;;;5091704;28;20486;-71
2023/05/26 03:13:01;;;;;;;20.05;13.05;;;512.10;2380.80;;;;;;5091382;28;20024;-72
2023/05/26 03:15:35;;;;;;;20.73;12.23;;;512.30;2380.80;;;;;;5091343;28;20085;-72
2023/05/26 03:18:00;;;;;;;17.02;12.75;;;512.20;2380.80;;;;;;5091558;28;20374;-73
2023/05/26 03:20:26;;;;;;;18.52;12.48;;;512.20;2380.80;;;;;;5091173;28;20012;-72
2023/05/26 03:22:52;;;;;;;23.20;13.00;;;512.20;2380.80;;;;;;5091758;28;20125;-79
2023/05/26 03:25:18;;;;;;;19.60;13.70;;;512.20;2380.80;;;;;;5091822;28;20023;-71
2023/05/26 03:27:44;;;;;;;21.13;12.63;;;512.30;2380.80;;;;;;5092807;28;20486;-78
2023/05/26 03:30:10;;;;;;;21.42;13.65;;;512.30;2380.80;;;;;;5093557;28;20035;-72
2023/05/26 03:32:35;;;;;;;17.20;12.77;;;512.30;2380.80;;;;;;5096298;28;20035;-72
2023/05/26 03:35:02;;;;;;;24.50;13.50;;;512.20;2380.80;;;;;;5096199;28;20052;-77
2023/05/26 03:37:28;;;;;;;22.50;13.20;;;512.20;2380.80;;;;;;5096560;28;20034;-72
2023/05/26 03:39:54;;;;;;;21.92;13.55;;;512.20;2380.80;;;;;;5096040;28;20103;-72
2023/05/26 03:42:19;;;;;;;22.95;13.65;;;512.20;2380.80;;;;;;5096545;28;20081;-78
2023/05/26 03:44:45;;;;;;;21.75;13.00;;;512.10;2380.80;;;;;;5096199;28;20039;-74
2023/05/26 03:47:11;;;;;;;21.38;13.43;;;512.10;2380.80;;;;;;5096237;28;20107;-71
2023/05/26 03:49:36;;;;;;;24.55;13.48;;;512.10;2380.80;;;;;;5095838;28;20423;-74
2023/05/26 03:52:02;;;;;;;19.67;13.40;;;512.10;2380.80;;;;;;5096166;28;20071;-72
2023/05/26 03:54:28;;;;;;;20.33;13.95;;;512.20;2380.80;;;;;;5095923;28;20036;-72
2023/05/26 03:56:55;;;;;;;21.20;13.63;;;512.30;2380.80;;;;;;5096228;28;20470;-74
2023/05/26 03:59:21;;;;;;;19.77;14.02;;;512.20;2380.80;;;;;;5095662;28;20339;-78
2023/05/26 04:01:47;;;;;;;18.05;13.10;;;512.20;2380.80;;;;;;5096222;28;20462;-73
2023/05/26 04:04:12;;;;;;;23.80;13.38;;;512.10;2380.80;;;;;;5095622;28;20077;-71
2023/05/26 04:06:38;;;;;;;21.50;13.82;;;512.10;2380.80;;;;;;5095887;28;20462;-73
2023/05/26 04:09:04;;;;;;;21.67;14.13;;;512.00;2380.80;;;;;;5095767;28;20032;-80
2023/05/26 04:11:30;;;;;;;19.25;14.38;;;487.30;2380.80;;;;;;5095802;28;20208;-72
2023/05/26 04:13:56;;;;;;;20.48;14.00;;;512.10;2380.80;;;;;;5095528;28;20020;-72
2023/05/26 04:16:22;;;;;;;25.45;15.10;;;512.10;2380.80;;;;;;5095908;28;20410;-73
2023/05/26 04:18:48;;;;;;;21.70;15.02;;;512.10;2380.80;;;;;;5095520;28;20020;-73
2023/05/26 04:21:13;;;;;;;21.02;14.40;;;512.20;2380.80;;;;;;5095575;28;20067;-73
2023/05/26 04:23:39;;;;;;;20.83;13.25;;;512.20;2380.80;;;;;;5095455;28;20023;-79
2023/05/26 04:26:05;;;;;;;21.75;14.52;;;512.20;2380.80;;;;;;5095729;28;20370;-79
2023/05/26 04:28:31;;;;;;;18.42;13.55;;;512.10;2380.80;;;;;;5095304;28;20020;-72
2023/05/26 04:30:57;;;;;;;22.48;14.45;;;512.20;2380.80;;;;;;5095385;28;20028;-72
2023/05/26 04:33:23;;;;;;;20.38;14.88;;;512.20;2380.80;;;;;;5095166;28;20044;-72
2023/05/26 04:35:48;;;;;;;28.35;14.77;;;512.30;2380.80;;;;;;5095541;28;20043;-71
2023/05/26 04:38:15;;;;;;;23.58;15.43;;;512.40;2380.80;;;;;;5095228;28;20382;-76
2023/05/26 04:40:42;;;;;;;23.83;15.10;;;512.50;2380.80;;;;;;5095406;28;20016;-74
2023/05/26 04:43:08;;;;;;;24.65;16.42;;;512.40;2380.80;;;;;;5094369;28;20043;-77
2023/05/26 04:45:37;;;;;;;21.60;14.95;;;512.50;2380.80;;;;;;5095028;28;20060;-72
2023/05/26 04:48:05;;;;;;;22.85;15.20;;;512.50;2380.80;;;;;;5095278;28;20051;-74
2023/05/26 04:50:32;;;;;;;20.35;14.38;;;512.50;2380.80;;;;;;5094690;28;20386;-73
2023/05/26 04:52:58;;;;;;;25.15;15.00;;;512.50;2380.80;;;;;;5094624;28;20111;-73
2023/05/26 04:55:25;;;;;;;21.95;14.93;;;512.50;2380.80;;;;;;5095049;28;20020;-72
2023/05/26 04:57:51;;;;;;;26.50;15.23;;;512.60;2380.80;;;;;;5094754;28;20030;-73
2023/05/26 05:00:17;;;;;;;25.20;15.40;;;512.50;2380.80;;;;;;5094842;28;20032;-74
2023/05/26 05:02:42;;;;;;;23.50;15.18;;;512.60;2380.80;;;;;;5094516;28;20008;-74
2023/05/26 05:05:08;;;;;;;23.65;13.77;;;512.70;2380.80;;;;;;5094497;28;20051;-73
2023/05/26 05:07:34;;;;;;;24.02;15.02;;;512.90;2380.80;;;;;;5094619;28;20020;-74
2023/05/26 05:10:00;;;;;;;23.95;15.23;;;512.90;2380.80;;;;;;5094649;28;20095;-74
2023/05/26 05:12:26;;;;;;;22.90;14.25;;;512.90;2380.80;;;;;;5094458;28;20073;-74
2023/05/26 05:14:51;;;;;;;22.08;15.05;;;512.90;2380.80;;;;;;5094501;28;20024;-74
2023/05/26 05:17:18;;;;;;;21.83;13.88;;;512.90;2380.80;;;;;;5094365;28;20028;-73
2023/05/26 05:19:43;;;;;;;20.13;14.88;;;537.60;2406.40;;;;;;5094393;28;20020;-73
2023/05/26 05:22:09;;;;;;;22.70;15.52;;;537.70;2406.40;;;;;;5094130;28;20017;-74
2023/05/26 05:24:35;;;;;;;27.00;15.88;;;537.80;2406.40;;;;;;5093220;28;20034;-73
2023/05/26 05:27:02;;;;;;;23.55;15.07;;;537.80;2406.40;;;;;;5098344;28;20024;-72
2023/05/26 05:29:27;;;;;;;21.75;16.42;;;537.90;2406.40;;;;;;5095081;28;20031;-71
2023/05/26 05:31:53;;;;;;;21.40;15.10;;;537.90;2406.40;;;;;;5100356;28;20039;-72
2023/05/26 05:34:19;;;;;;;23.02;15.40;;;537.90;2406.40;;;;;;5103605;28;20078;-70
2023/05/26 05:36:45;;;;;;;24.17;15.20;;;538.00;2406.40;;;;;;5097052;28;20025;-74
2023/05/26 05:39:10;;;;;;;20.70;15.23;;;538.10;2406.40;;;;;;5102540;28;20028;-73
2023/05/26 05:41:36;;;;;;;24.25;15.68;;;538.10;2406.40;;;;;;5103579;28;20055;-73
2023/05/26 05:44:02;;;;;;;18.35;15.10;;;538.00;2406.40;;;;;;5098143;28;20028;-73
2023/05/26 05:46:28;;;;;;;20.05;14.82;;;538.10;2406.40;;;;;;5102348;28;20031;-73
2023/05/26 05:48:54;;;;;;;24.98;15.70;;;538.20;2406.40;;;;;;5105814;28;20377;-72
2023/05/26 05:51:20;;;;;;;19.15;15.18;;;538.30;2406.40;;;;;;5098949;28;20063;-71
2023/05/26 05:53:45;;;;;;;24.02;16.65;;;538.40;2406.40;;;;;;5093123;28;20012;-72
2023/05/26 05:56:11;;;;;;;21.42;14.77;;;538.40;2406.40;;;;;;5105460;28;20023;-76
2023/05/26 05:58:37;;;;;;;20.55;14.48;;;538.50;2406.40;;;;;;5101488;28;20031;-72
2023/05/26 06:01:03;;;;;;;24.52;15.95;;;563.30;2432.00;;;;;;5096642;28;20027;-73
2023/05/26 06:03:29;;;;;;;24.55;14.13;;;538.50;2406.40;;;;;;5104612;28;20386;-72
2023/05/26 06:05:55;;;;;;;24.80;16.15;;;538.50;2406.40;;;;;;5097848;28;20032;-75
2023/05/26 06:08:20;;;;;;;23.27;14.45;;;538.50;2406.40;;;;;;5097979;28;20036;-72
2023/05/26 06:10:46;;;;;;;21.38;13.25;;;563.30;2432.00;;;;;;5107482;28;20456;-71
2023/05/26 06:13:12;;;;;;;22.85;14.18;;;563.30;2432.00;;;;;;5098698;28;20028;-75
2023/05/26 06:15:37;;;;;;;22.33;14.50;;;563.40;2432.00;;;;;;5102531;28;20027;-73
2023/05/26 06:18:03;;;;;;;20.85;15.07;;;563.30;2432.00;;;;;;5103100;28;20073;-72
2023/05/26 06:20:29;;;;;;;22.77;13.75;;;563.40;2432.00;;;;;;5082092;28;20035;-73
2023/05/26 06:22:55;;;;;;;22.15;15.05;;;563.40;2432.00;;;;;;5094334;28;20046;-73
2023/05/26 06:25:20;;;;;;;20.70;13.35;;;563.40;2432.00;;;;;;5098814;28;20476;-74
2023/05/26 06:27:46;;;;;;;23.30;13.80;;;563.50;2432.00;;;;;;5095550;28;20031;-73
2023/05/26 06:30:12;;;;;;;19.15;13.32;;;563.60;2432.00;;;;;;5101568;28;20024;-74
2023/05/26 06:32:38;;;;;;;18.02;13.63;;;563.60;2432.00;;;;;;5103269;28;20366;-74
2023/05/26 06:35:05;;;;;;;20.42;14.40;;;563.70;2432.00;;;;;;5097957;28;20079;-74
2023/05/26 06:37:31;;;;;;;21.80;14.40;;;563.90;2432.00;;;;;;5097334;28;20119;-74
2023/05/26 06:39:57;;;;;;;20.23;13.77;;;564.00;2432.00;;;;;;5088827;28;20111;-74
2023/05/26 06:42:23;;;;;;;25.10;13.57;;;564.10;2432.00;;;;;;5098303;28;20020;-73
2023/05/26 06:44:49;;;;;;;20.95;14.32;;;588.80;2432.00;;;;;;5100533;28;20338;-73
2023/05/26 06:47:15;;;;;;;28.42;12.77;;;589.00;2432.00;;;;;;5085147;28;20051;-74
2023/05/26 06:49:41;;;;;;;16.08;11.80;;;589.00;2432.00;;;;;;5103686;28;20059;-74
2023/05/26 06:52:07;;;;;;;14.90;11.38;;;589.10;2432.00;;;;;;5101604;28;20059;-73
2023/05/26 06:54:32;;;;;;;22.58;12.40;;;589.20;2432.00;;;;;;5102267;28;20374;-74
2023/05/26 06:57:00;;;;;;;18.40;12.43;;;589.10;2432.00;;;;;;5099888;28;20037;-74
2023/05/26 06:59:26;;;;;;;17.38;11.63;;;589.20;2432.00;;;;;;5099821;28;20023;-74
2023/05/26 07:01:52;;;;;;;17.73;13.18;;;589.10;2432.00;;;;;;5103839;28;20080;-73
2023/05/26 07:04:17;;;;;;;16.85;12.38;;;589.30;2432.00;;;;;;5102499;28;20046;-72
2023/05/26 07:06:43;;;;;;;16.60;11.55;;;589.50;2432.00;;;;;;5098634;28;20070;-73
2023/05/26 07:09:10;;;;;;;17.45;11.90;;;589.60;2432.00;;;;;;5108297;28;20096;-74
2023/05/26 07:11:36;;;;;;;22.58;12.27;;;589.70;2432.00;;;;;;5108548;28;20627;-72
2023/05/26 07:14:01;;;;;;;19.00;12.25;;;614.40;2432.00;;;;;;5105315;28;20095;-72
2023/05/26 07:16:27;;;;;;;16.10;11.43;;;589.70;2432.00;;;;;;5110280;28;20076;-72
2023/05/26 07:18:53;;;;;;;13.98;10.68;;;589.70;2432.00;;;;;;5102994;28;20500;-72
2023/05/26 07:21:21;;;;;;;17.73;11.60;;;614.40;2432.00;;;;;;5103474;28;20027;-73
2023/05/26 07:23:47;;;;;;;16.90;10.90;;;614.50;2432.00;;;;;;5105239;28;20157;-74
2023/05/26 07:26:13;;;;;;;16.95;11.02;;;614.70;2432.00;;;;;;5100156;28;20039;-72
2023/05/26 07:28:40;;;;;;;21.20;13.05;;;614.80;2432.00;;;;;;5105491;28;20028;-71
2023/05/26 07:31:06;;;;;;;16.20;11.38;;;614.80;2432.00;;;;;;5102245;28;20044;-72
2023/05/26 07:33:32;;;;;;;17.23;12.32;;;614.90;2432.00;;;;;;5101538;28;20392;-73
2023/05/26 07:35:57;;;;;;;18.15;11.73;;;615.00;2432.00;;;;;;5106001;28;20028;-73
2023/05/26 07:38:23;;;;;;;19.10;10.77;;;615.00;2432.00;;;;;;5098506;28;20504;-74
2023/05/26 07:40:49;;;;;;;14.65;10.52;;;615.00;2432.00;;;;;;5099884;28;20374;-72
2023/05/26 07:43:15;;;;;;;19.45;12.05;;;615.10;2432.00;;;;;;5100658;28;20032;-72
2023/05/26 07:45:40;;;;;;;16.80;11.05;;;615.10;2432.00;;;;;;5101305;28;20421;-72
2023/05/26 07:48:06;;;;;;;13.10;9.50;;;615.30;2432.00;;;;;;5108046;28;20036;-71
2023/05/26 07:50:32;;;;;;;14.55;10.40;;;615.30;2432.00;;;;;;5101169;28;20062;-71
2023/05/26 07:52:58;;;;;;;18.98;10.23;;;640.10;2432.00;;;;;;5098731;28;20027;-71
2023/05/26 07:55:23;;;;;;;13.48;9.02;;;640.20;2432.00;;;;;;5101348;28;20027;-72
2023/05/26 07:57:49;;;;;;;15.27;10.38;;;640.50;2432.00;;;;;;5105903;28;20110;-72
2023/05/26 08:00:15;;;;;;;14.95;10.70;;;640.60;2432.00;;;;;;5098753;28;20024;-74
2023/05/26 08:02:41;;;;;;;17.65;11.18;;;640.60;2432.00;;;;;;5100571;28;20027;-71
2023/05/26 08:05:07;;;;;;;11.50;9.23;;;640.60;2432.00;;;;;;5099850;28;20020;-73
2023/05/26 08:07:33;;;;;;;19.08;9.90;;;640.60;2432.00;;;;;;5081920;28;20435;-72
2023/05/26 08:09:58;;;;;;;13.25;9.43;;;640.70;2432.00;;;;;;5103737;28;20016;-73
2023/05/26 08:12:24;;;;;;;14.95;9.20;;;640.70;2432.00;;;;;;5100027;28;20044;-73
2023/05/26 08:14:50;;;;;;;15.25;8.90;;;640.90;2432.00;;;;;;5103099;28;20056;-73
2023/05/26 08:17:17;;;;;;;15.30;8.52;;;640.90;2432.00;;;;;;5102324;28;20063;-73
2023/05/26 08:19:42;;;;;;;18.85;9.20;;;640.80;2432.00;;;;;;5093376;28;20027;-72
2023/05/26 08:22:08;;;;;;;19.75;9.40;;;640.90;2432.00;;;;;;5101618;28;20028;-73
2023/05/26 08:24:34;;;;;;;15.18;10.38;;;640.90;2432.00;;;;;;5097791;28;20031;-72
2023/05/26 08:27:00;;;;;;;15.20;9.20;;;640.70;2432.00;;;;;;5104542;28;20023;-72
2023/05/26 08:29:26;;;;;;;12.85;8.43;;;640.70;2432.00;;;;;;5103248;28;20077;-72
2023/05/26 08:31:53;;;;;;;13.85;9.85;;;640.80;2432.00;;;;;;5107886;28;20035;-72
2023/05/26 08:34:19;;;;;;;14.10;9.30;;;640.90;2432.00;;;;;;5100972;28;20067;-73
2023/05/26 08:36:45;;;;;;;12.02;7.95;;;640.90;2432.00;;;;;;5104967;28;20059;-73
2023/05/26 08:39:11;;;;;;;10.40;7.60;;;665.60;2432.00;;;;;;5100807;28;20028;-73
2023/05/26 08:41:53;;;;;;;10.07;6.78;;;665.70;2432.00;;;;;;5097837;28;20024;-75
2023/05/26 08:44:19;;;;;;;10.02;6.75;;;665.70;2432.00;;;;;;5100388;28;20024;-75
2023/05/26 08:46:45;;;;;;;13.75;6.78;;;665.70;2432.00;;;;;;5100589;28;21062;-75
2023/05/26 08:49:16;;;;;;;11.85;7.30;;;665.90;2432.00;;;;;;5101223;28;20051;-72
2023/05/26 08:51:46;;;;;;;14.82;6.63;;;666.00;2432.00;;;;;;5093735;28;20099;-73
2023/05/26 08:54:12;;;;;;;25.73;10.30;;;666.00;2432.00;;;;;;5087833;28;20135;-73
2023/05/26 08:56:38;;;;;;;18.92;7.97;;;666.30;2432.00;;;;;;5095902;28;20056;-72
2023/05/26 08:59:08;;;;;;;12.85;7.57;;;666.30;2432.00;;;;;;5101126;28;20027;-72
2023/05/26 09:01:34;;;;;;;10.93;6.78;;;666.30;2432.00;;;;;;5097819;28;20486;-72
2023/05/26 09:04:00;;;;;;;13.35;7.50;;;666.30;2432.00;;;;;;5106439;28;20036;-73
2023/05/26 09:06:26;;;;;;;15.75;7.05;;;666.50;2432.00;;;;;;5074983;28;20024;-73
2023/05/26 09:08:53;;;;;;;25.92;10.20;;;691.20;2432.00;;;;;;5105649;28;20089;-71
2023/05/26 09:11:27;;;;;;;14.60;6.30;;;691.20;2432.00;;;;;;5077106;28;20032;-72
2023/05/26 09:13:57;;;;;;;7.70;5.50;;;691.20;2432.00;;;;;;5095892;28;20019;-73
2023/05/26 09:16:23;;;;;;;42.90;8.77;;;691.30;2432.00;;;;;;5100286;28;20066;-73
2023/05/26 09:18:54;;;;;;;11.05;6.05;;;691.30;2432.00;;;;;;5097065;28;20139;-73
2023/05/26 09:21:20;;;;;;;11.20;5.70;;;691.30;2406.40;;;;;;5100391;28;20541;-74
2023/05/26 09:23:54;;;;;;;10.38;5.50;;;691.40;2432.00;;;;;;5095145;28;20025;-72
2023/05/26 09:26:28;;;;;;;7.68;5.53;;;691.60;2406.40;;;;;;5107598;28;20024;-75
2023/05/26 09:28:54;;;;;;;7.20;5.00;;;691.70;2432.00;;;;;;5096470;28;20061;-73
2023/05/26 09:31:20;;;;;;;11.30;5.90;;;691.70;2380.80;;;;;;5095966;28;20085;-73
2023/05/26 09:33:46;;;;;;;8.93;5.35;;;691.90;2432.00;;;;;;5098560;28;20044;-72
2023/05/26 09:36:14;;;;;;;9.60;4.82;;;691.90;2329.60;;;;;;5098455;28;20055;-72
2023/05/26 09:38:44;;;;;;;7.45;5.22;;;692.10;2201.60;;;;;;5080434;28;20392;-73
2023/05/26 09:41:10;;;;;;;5.95;4.47;;;691.90;2355.20;;;;;;5098129;28;20091;-72
2023/05/26 09:43:37;;;;;;;7.78;5.07;;;691.80;2355.20;;;;;;5098818;28;20109;-74
2023/05/26 09:46:23;;;;;;;12.55;5.25;;;692.00;2252.80;;;;;;5099002;28;20057;-71
2023/05/26 09:48:50;;;;;;;6.68;4.75;;;716.90;2329.60;;;;;;5097385;28;20043;-71
2023/05/26 09:51:20;;;;;;;10.95;4.72;;;716.90;2227.20;;;;;;5099033;28;20043;-72
2023/05/26 09:53:47;;;;;;;6.97;5.18;;;692.10;2150.40;;;;;;5103368;28;20024;-72
2023/05/26 09:56:16;;;;;;;8.60;5.22;;;692.00;2304.00;;;;;;5098704;28;20434;-74
2023/05/26 09:58:45;;;;;;;8.82;4.63;;;716.90;2176.00;;;;;;5094621;28;20105;-73
2023/05/26 10:01:12;;;;;;;14.23;5.32;;;717.10;2073.60;;;;;;5097597;28;20020;-72
2023/05/26 10:03:38;;;;;;;7.13;4.15;;;717.10;2073.60;;;;;;5097592;28;20424;-72
2023/05/26 10:06:05;;;;;;;8.70;4.15;;;717.30;2176.00;;;;;;5082196;28;20024;-72
2023/05/26 10:08:32;;;;;;;8.75;4.45;;;717.60;2124.80;;;;;;5097130;28;20036;-74
2023/05/26 10:10:58;;;;;;;5.28;4.13;;;717.20;2048.00;;;;;;5099444;28;20044;-74
2023/05/26 10:13:25;;;;;;;9.32;4.47;;;716.90;2252.80;;;;;;5103282;28;20028;-73
2023/05/26 10:15:51;;;;;;;5.90;4.35;;;717.50;2073.60;;;;;;5097834;28;20137;-73
2023/05/26 10:18:16;;;;;;;7.72;4.65;;;742.40;2150.40;;;;;;5099670;28;20063;-72
2023/05/26 10:20:46;;;;;;;9.85;4.43;;;742.40;2124.80;;;;;;5098468;28;20061;-72
2023/05/26 10:23:19;;;;;;;7.18;4.22;;;742.50;2048.00;;;;;;5085886;28;20019;-74
2023/05/26 10:26:12;;;;;;;6.38;4.38;;;742.90;2099.20;;;;;;5095399;28;20461;-73
2023/05/26 10:28:43;;;;;;;10.75;4.40;;;743.10;2048.00;;;;;;5034298;28;20075;-73
2023/05/26 10:31:09;;;;;;;7.22;4.47;;;742.80;1945.60;;;;;;5032772;28;20048;-74
2023/05/26 10:33:39;;;;;;;9.23;4.07;;;742.60;1971.20;;;;;;5031982;28;20037;-72
2023/05/26 10:36:15;;;;;;;8.43;4.80;;;742.50;2073.60;;;;;;5034330;28;20147;-74
2023/05/26 10:38:47;;;;;;;5.95;4.05;;;717.70;2073.60;;;;;;5035197;28;20031;-71
2023/05/26 10:41:29;;;;;;;6.75;4.38;;;742.80;1971.20;;;;;;5036042;28;20029;-72
2023/05/26 10:43:55;;;;;;;7.88;4.38;;;743.00;1868.80;;;;;;5030115;28;20053;-73
2023/05/26 10:46:21;;;;;;;8.95;4.45;;;743.30;1894.40;;;;;;5034071;28;20149;-73
2023/05/26 10:48:58;;;;;;;6.53;4.50;;;768.00;1817.60;;;;;;5038430;28;20160;-74
2023/05/26 10:51:33;;;;;;;11.75;4.90;;;768.30;1766.40;;;;;;5036178;28;20045;-73
2023/05/26 10:54:13;;;;;;;7.65;4.40;;;768.50;1792.00;;;;;;5030120;28;20038;-73
2023/05/26 10:56:43;;;;;;;6.45;3.47;;;768.50;1740.80;;;;;;5037877;28;20033;-74
2023/05/26 10:59:20;;;;;;;9.30;4.40;;;768.10;1894.40;;;;;;5030419;28;20415;-74
2023/05/26 11:01:52;;;;;;;7.20;4.30;;;743.00;1920.00;;;;;;5034418;28;20080;-72
2023/05/26 11:04:18;;;;;;;7.25;4.47;;;768.10;1843.20;;;;;;5036686;28;20041;-72
2023/05/26 11:06:48;;;;;;;9.70;4.78;;;768.40;1843.20;;;;;;5096626;28;20400;-71
2023/05/26 11:09:14;;;;;;;4.85;3.95;;;768.60;1792.00;;;;;;5098125;28;20150;-72
2023/05/26 11:11:49;;;;;;;10.80;4.35;;;768.80;1792.00;;;;;;5104128;28;20028;-72
2023/05/26 11:14:20;;;;;;;9.82;4.70;;;743.30;1817.60;;;;;;5095883;28;20027;-72
2023/05/26 11:16:48;;;;;;;9.68;5.03;;;742.90;1843.20;;;;;;5098727;28;20388;-73
2023/05/26 11:19:15;;;;;;;7.05;4.70;;;742.80;1894.40;;;;;;5093142;28;20025;-74
2023/05/26 11:21:41;;;;;;;6.90;5.07;;;743.30;1945.60;;;;;;5094922;28;20024;-72
2023/05/26 11:24:07;;;;;;;6.05;4.30;;;743.30;1894.40;;;;;;5097634;28;20512;-71
2023/05/26 11:26:33;;;;;;;9.32;4.72;;;743.00;1868.80;;;;;;5098704;28;20039;-72
2023/05/26 11:29:04;;;;;;;12.43;4.60;;;743.10;1894.40;;;;;;5100417;28;20031;-73
2023/05/26 11:31:30;;;;;;;4.93;4.28;;;742.90;1894.40;;;;;;5092550;28;20486;-74
2023/05/26 11:33:57;;;;;;;9.23;4.40;;;742.90;1894.40;;;;;;5100389;28;20557;-74
2023/05/26 11:36:24;;;;;;;8.05;4.72;;;743.10;1817.60;;;;;;5077864;28;20066;-74
2023/05/26 11:38:57;;;;;;;15.05;5.30;;;768.10;1740.80;;;;;;5100620;28;20093;-73
2023/05/26 11:41:25;;;;;;;6.70;4.50;;;743.30;1843.20;;;;;;5098303;28;20036;-72
2023/05/26 11:43:53;;;;;;;8.23;5.60;;;743.00;1792.00;;;;;;5095159;28;20085;-73
2023/05/26 11:46:20;;;;;;;9.20;4.38;;;742.80;1766.40;;;;;;5102483;28;20052;-73
2023/05/26 11:48:46;;;;;;;6.75;4.18;;;743.10;1766.40;;;;;;5097360;28;20099;-73
2023/05/26 11:51:14;;;;;;;7.97;4.53;;;768.30;1664.00;;;;;;5098295;28;20468;-73
2023/05/26 11:53:41;;;;;;;7.32;4.38;;;768.60;1638.40;;;;;;5098428;28;20077;-73
2023/05/26 11:56:07;;;;;;;11.05;4.78;;;768.50;1664.00;;;;;;5096815;28;20028;-73
2023/05/26 11:58:38;;;;;;;11.85;5.05;;;768.40;1638.40;;;;;;5101372;28;20355;-73
2023/05/26 12:01:05;;;;;;;9.60;4.40;;;768.40;1664.00;;;;;;5095013;28;20020;-73
2023/05/26 12:03:36;;;;;;;8.15;4.72;;;768.60;1587.20;;;;;;5099107;28;20032;-73